EDLP/PAD METAR and TAF weather

Enter ICAO airport designator
Station Type Date Time Source
EDLP METAR 2021/05/15 00:50 UTC NOAA

EDLP 150050Z VRB04KT 9999 FEW038 08/05 Q1007


Station Type Date Time Source
EDLP Decoded METAR 2021/05/15 00:50 UTC NOAA

Paderborn / Lippstadt, Germany (EDLP) 51-37N 008-37E
May 14, 2021 - 08:50 PM EDT / 2021.05.15 0050 UTC
Wind: Variable at 5 MPH (4 KT):0
Visibility: greater than 7 mile(s):0
Sky conditions: mostly clear
Temperature: 46 F (8 C)
Dew Point: 41 F (5 C)
Relative Humidity: 81%
Pressure (altimeter): 29.74 in. Hg (1007 hPa)
ob: EDLP 150050Z VRB04KT 9999 FEW038 08/05 Q1007
cycle: 1

Station Type Date Time Source
EDLP TAF 2021/05/14 18:27 UTC NOAA

TAF EDLP 141700Z 1418/1518 27006KT 9999 SCT040
BECMG 1418/1422 19004KT
BECMG 1506/1509 21010KT
TEMPO 1510/1517 22015G25KT SHRA SCT020TCU PROB30
TEMPO 1510/1515 TSRA

Example: see airport list